createdAt,value
2022-08-17T04:44:37.157Z,41.95
2022-08-17T04:49:40.093Z,44.00
2022-08-17T04:54:42.161Z,44.92
2022-08-17T04:59:44.343Z,47.92
2022-08-17T05:09:48.516Z,48.30
2022-08-17T05:14:50.636Z,53.83
2022-08-17T05:24:55.480Z,48.23
2022-08-17T05:29:57.602Z,45.67
2022-08-17T05:35:00.513Z,51.85
2022-08-17T05:40:02.825Z,48.42
2022-08-17T05:55:34.351Z,52.40
2022-08-17T06:01:25.145Z,47.08
2022-08-17T06:06:51.469Z,42.97
2022-08-17T06:12:39.602Z,42.78
2022-08-17T06:17:43.025Z,39.65
2022-08-17T06:22:51.281Z,40.63
2022-08-17T06:28:03.202Z,38.92
2022-08-17T06:33:27.663Z,43.15
2022-08-17T06:39:18.057Z,38.58
2022-08-17T06:44:43.463Z,44.38
2022-08-17T06:50:09.202Z,35.80
2022-08-17T06:55:22.365Z,35.92
2022-08-17T07:00:33.569Z,36.53
2022-08-17T07:05:51.700Z,31.53
2022-08-17T07:10:58.308Z,32.13
2022-08-17T07:16:20.722Z,31.02
2022-08-17T07:21:40.940Z,31.27
2022-08-17T07:26:42.845Z,28.90
2022-08-17T07:31:45.081Z,25.98
2022-08-17T07:36:47.062Z,30.58
2022-08-17T07:41:58.680Z,26.38
2022-08-17T07:52:51.274Z,32.45
2022-08-17T07:57:59.372Z,26.25
2022-08-17T08:03:21.867Z,26.52
2022-08-17T08:08:42.308Z,24.73
2022-08-17T08:13:45.901Z,23.17
2022-08-17T08:18:57.412Z,30.73
2022-08-17T08:24:43.194Z,17.52
2022-08-17T08:30:00.184Z,17.23
2022-08-17T08:35:26.874Z,16.38
2022-08-17T08:40:49.848Z,18.48
2022-08-17T08:46:19.844Z,16.67
2022-08-17T08:51:51.896Z,16.27
2022-08-17T08:57:24.346Z,16.15
2022-08-17T09:02:56.209Z,15.38
2022-08-17T09:08:37.560Z,13.65
2022-08-17T09:13:56.774Z,15.63
2022-08-17T09:19:31.450Z,17.95
2022-08-17T09:25:04.372Z,15.77
2022-08-17T09:30:10.466Z,17.67
2022-08-17T09:35:23.864Z,14.30
2022-08-17T09:41:14.152Z,17.33
2022-08-17T09:46:39.075Z,16.25
2022-08-17T09:51:55.560Z,16.65
2022-08-17T09:57:29.184Z,17.88
2022-08-17T10:02:55.815Z,22.02
2022-08-17T10:08:30.836Z,22.15
2022-08-17T10:13:59.619Z,22.48
2022-08-17T10:20:05.113Z,23.92
2022-08-17T10:25:48.600Z,26.88
2022-08-17T10:31:16.654Z,27.80
2022-08-17T10:36:37.934Z,28.92
2022-08-17T10:41:49.602Z,26.92
2022-08-17T10:47:07.499Z,30.40
2022-08-17T10:52:39.864Z,30.38
2022-08-17T11:02:55.004Z,32.58
2022-08-17T11:08:15.931Z,31.38
2022-08-17T11:13:52.824Z,31.27
2022-08-17T11:20:11.351Z,33.30
2022-08-17T11:25:22.082Z,36.38
2022-08-17T11:30:59.444Z,36.72
2022-08-17T11:36:32.738Z,45.83
2022-08-17T11:41:59.674Z,44.25
2022-08-17T11:47:36.171Z,41.80
2022-08-17T11:52:47.536Z,42.63
2022-08-17T11:58:01.990Z,45.00
2022-08-17T12:03:57.208Z,41.92
2022-08-17T12:09:22.104Z,46.75
2022-08-17T12:15:05.982Z,40.47
2022-08-17T12:20:24.273Z,45.30
2022-08-17T12:26:07.956Z,41.30
2022-08-17T12:31:34.856Z,38.65
2022-08-17T12:36:41.455Z,39.38
2022-08-17T12:41:48.467Z,36.70
2022-08-17T12:47:01.319Z,35.75
2022-08-17T12:52:33.011Z,42.58
2022-08-17T12:57:51.370Z,41.80
2022-08-17T13:03:12.580Z,41.05
2022-08-17T13:08:31.752Z,41.28
2022-08-17T13:13:52.756Z,42.42
2022-08-17T13:19:40.516Z,43.65
2022-08-17T13:25:08.635Z,39.17
2022-08-17T13:30:23.105Z,37.42
2022-08-17T13:35:32.817Z,39.72
2022-08-17T13:40:53.181Z,41.95
2022-08-17T13:46:21.136Z,44.85
2022-08-17T13:51:50.243Z,44.22
2022-08-17T13:57:02.164Z,46.00
2022-08-17T14:02:08.381Z,45.33
2022-08-17T14:07:15.910Z,40.83
2022-08-17T14:12:25.016Z,44.38
2022-08-17T14:17:29.659Z,48.30
2022-08-17T14:22:34.669Z,49.10
2022-08-17T14:27:51.869Z,46.10
2022-08-17T14:32:56.480Z,52.47
2022-08-17T14:37:58.769Z,46.30
2022-08-17T14:43:01.473Z,48.25
2022-08-17T14:48:09.469Z,44.15
2022-08-17T14:53:15.263Z,47.60
2022-08-17T14:58:17.403Z,51.92
2022-08-17T15:08:24.362Z,44.08
2022-08-17T15:13:27.901Z,42.33
2022-08-17T15:18:30.897Z,47.05
2022-08-17T15:23:33.082Z,48.88
2022-08-17T15:28:35.329Z,51.67
2022-08-17T15:33:37.344Z,50.70
2022-08-17T15:38:39.547Z,48.00
2022-08-17T15:48:48.584Z,48.35
2022-08-17T15:53:57.992Z,47.70
2022-08-17T15:59:00.395Z,47.83
2022-08-17T16:04:06.738Z,45.00
2022-08-17T16:09:17.089Z,48.83
2022-08-17T16:14:19.108Z,45.83
2022-08-17T16:19:21.062Z,50.45
2022-08-17T16:24:23.021Z,49.17
2022-08-17T16:29:25.402Z,48.28
2022-08-17T16:34:27.409Z,48.42
2022-08-17T16:39:29.879Z,51.55
2022-08-17T16:44:32.639Z,49.28
2022-08-17T16:49:42.405Z,47.92
2022-08-17T16:54:47.207Z,48.20
2022-08-17T16:59:58.131Z,44.08
2022-08-17T17:05:57.797Z,49.38
2022-08-17T17:11:23.948Z,46.05
2022-08-17T17:16:32.135Z,50.53
2022-08-17T17:22:20.924Z,50.80
2022-08-17T17:27:51.649Z,47.60
2022-08-17T17:33:17.549Z,49.30
2022-08-17T17:38:38.563Z,51.40
2022-08-17T17:43:43.749Z,53.70
2022-08-17T17:48:46.264Z,54.05
2022-08-17T17:54:44.065Z,49.13
2022-08-17T18:00:02.774Z,47.20
2022-08-17T18:05:32.552Z,48.78
2022-08-17T18:11:15.529Z,48.63
2022-08-17T18:16:31.906Z,47.05
2022-08-17T18:21:47.152Z,50.00
2022-08-17T18:26:58.952Z,47.03
2022-08-17T18:32:26.710Z,46.42
2022-08-17T18:37:45.061Z,43.67
2022-08-17T18:43:24.534Z,45.05
2022-08-17T18:48:58.905Z,44.35
2022-08-17T18:54:07.363Z,45.03
2022-08-17T18:59:22.154Z,45.83
2022-08-17T19:04:43.794Z,48.58
2022-08-17T19:10:28.347Z,51.57
2022-08-17T19:15:36.117Z,52.42
2022-08-17T19:20:51.603Z,55.25
